Aviation Digital Data Service (ADDS)

Output produced by METARs form (1158 UTC 26 March 2019)
found at http://www.aviationweather.gov/metar/data/
 
DRRN 261100Z 10013G25KT 070V130 5000 DU NSC 36/M05 Q1013 NOSIG
TAF DRRN 261100Z 2612/2718 09010KT 5000 DU NSC 
     TEMPO 2617/2620 3500 
     TEMPO 2706/2708 3500 
     TEMPO 2708/2712 12020KT 2500 BLDU
       
DRZA 261100Z 10010KT CAVOK 33/08 Q1018
TAF DRZA 261100Z 2612/2712 10010KT CAVOK
       
DRRM 261100Z 08016KT 6000 NSC 35/M06 Q1015
DRRT 261100Z 12024KT 1500 SA 35/M01 Q1015
DRZR 261100Z 08014KT 7000 NSC 34/M08 Q1016
TAF DRZR 261100Z 2612/2712 06008KT 8000 NSC 
     TEMPO 2706/2710 08018KT 3000 BLDU